Augusta, Maine
Current Conditions -  °F | °C
As of 11:00 PM on Wednesday 26 Nov 2014 (Local Time) from KAUG Reporting Station
Light Snow Light Snow  
Wind Chill: 18°   Ceiling: 700
Heat Index: 30°   Visibility: 0.75mi
Dew Point: 29°   Wind: 20mph
Humidity: 96%   Direction: 10°N
Pressure: 29.79"   Gusts: 32mph
Location:  44.32°N, 69.78°W
Report Text: KAUG 270400Z AUTO 01017G28KT 3/4SM -SN BR OVC007 M01/M02 A2979 RMK AO2 P0001 T10111017
Loading
Personal Weather Stations






























Interactive Weather Map New forecast layout! Learn more

10-Day Weather Forecast

Advertisements
Track Severe Weather on mobile